createdAt,value
2019-05-23T00:02:18.955Z,100912.66
2019-05-23T00:08:26.032Z,100905.16
2019-05-23T00:11:27.506Z,100910.76
2019-05-23T00:14:17.997Z,100905.36
2019-05-23T00:17:05.297Z,100905.56
2019-05-23T00:20:06.843Z,100912.30
2019-05-23T00:22:54.112Z,100910.22
2019-05-23T00:28:47.360Z,100914.28
2019-05-23T00:31:38.570Z,100905.07
2019-05-23T00:34:25.713Z,100910.39
2019-05-23T00:37:15.959Z,100915.50
2019-05-23T00:40:02.940Z,100911.80
2019-05-23T00:42:51.304Z,100907.53
2019-05-23T00:45:38.332Z,100920.89
2019-05-23T00:48:25.369Z,100916.26
2019-05-23T00:51:12.138Z,100910.27
2019-05-23T00:53:59.273Z,100911.78
2019-05-23T00:56:46.373Z,100914.60
2019-05-23T00:59:33.260Z,100913.14
2019-05-23T01:02:20.376Z,100910.36
2019-05-23T01:05:07.341Z,100908.54
2019-05-23T01:07:54.060Z,100916.89
2019-05-23T01:10:40.926Z,100924.98
2019-05-23T01:13:27.676Z,100916.36
2019-05-23T01:16:14.797Z,100912.44
2019-05-23T01:19:01.681Z,100916.97
2019-05-23T01:22:01.033Z,100915.29
2019-05-23T01:24:48.309Z,100919.00
2019-05-23T01:27:35.080Z,100918.92
2019-05-23T01:30:30.230Z,100913.81
2019-05-23T01:33:15.079Z,100914.38
2019-05-23T01:36:02.882Z,100915.97
2019-05-23T01:38:50.334Z,100917.50
2019-05-23T01:41:37.234Z,100924.98
2019-05-23T01:44:24.152Z,100919.58
2019-05-23T01:47:13.214Z,100921.37
2019-05-23T01:49:58.258Z,100924.89
2019-05-23T01:52:45.517Z,100926.61
2019-05-23T01:55:32.583Z,100917.03
2019-05-23T01:58:19.824Z,100921.42
2019-05-23T02:01:06.589Z,100920.58
2019-05-23T02:03:53.929Z,100926.75
2019-05-23T02:06:40.962Z,100923.28
2019-05-23T02:09:28.073Z,100919.39
2019-05-23T02:12:14.911Z,100920.05
2019-05-23T02:15:02.065Z,100922.14
2019-05-23T02:17:49.033Z,100924.84
2019-05-23T02:20:36.252Z,100926.81
2019-05-23T02:23:23.059Z,100917.78
2019-05-23T02:26:10.321Z,100922.64
2019-05-23T02:28:57.375Z,100922.89
2019-05-23T02:31:44.655Z,100918.61
2019-05-23T02:34:32.435Z,100917.78
2019-05-23T02:37:28.855Z,100931.20
2019-05-23T02:40:15.925Z,100923.53
2019-05-23T02:43:03.292Z,100921.42
2019-05-23T02:45:50.714Z,100921.14
2019-05-23T02:48:44.774Z,100924.70
2019-05-23T02:51:31.987Z,100928.70
2019-05-23T02:54:19.712Z,100928.23
2019-05-23T02:57:06.960Z,100930.84
2019-05-23T02:59:53.743Z,100925.39
2019-05-23T03:02:56.769Z,100924.42
2019-05-23T03:05:43.955Z,100925.53
2019-05-23T03:08:31.071Z,100932.28
2019-05-23T03:11:31.013Z,100926.25
2019-05-23T03:14:17.588Z,100932.09
2019-05-23T03:17:04.996Z,100931.23
2019-05-23T03:22:58.416Z,100926.70
2019-05-23T03:26:00.819Z,100930.27
2019-05-23T03:28:48.574Z,100929.02
2019-05-23T03:31:35.712Z,100925.09
2019-05-23T03:34:22.501Z,100926.00
2019-05-23T03:37:09.405Z,100916.00
2019-05-23T03:39:56.538Z,100924.22
2019-05-23T03:42:43.259Z,100916.33
2019-05-23T03:45:33.442Z,100918.95
2019-05-23T03:48:23.275Z,100919.82
2019-05-23T03:51:10.042Z,100917.03
2019-05-23T03:53:57.233Z,100918.36
2019-05-23T03:56:43.965Z,100914.79
2019-05-23T04:02:39.774Z,100920.14
2019-05-23T04:05:26.771Z,100917.56
2019-05-23T04:08:13.851Z,100917.27
2019-05-23T04:11:01.073Z,100914.72
2019-05-23T04:13:48.319Z,100922.13
2019-05-23T04:16:35.611Z,100926.47
2019-05-23T04:19:22.813Z,100921.14
2019-05-23T04:22:10.489Z,100923.72
2019-05-23T04:25:01.679Z,100921.47
2019-05-23T04:27:44.222Z,100922.37
2019-05-23T04:30:31.423Z,100927.23
2019-05-23T04:33:18.846Z,100930.88
2019-05-23T04:36:06.513Z,100930.25
2019-05-23T04:39:07.761Z,100928.57
2019-05-23T04:41:54.741Z,100935.41
2019-05-23T04:44:44.436Z,100934.20
2019-05-23T04:47:28.809Z,100935.41
2019-05-23T04:50:15.621Z,100937.89
2019-05-23T04:53:02.807Z,100935.89
2019-05-23T04:55:49.608Z,100935.06
2019-05-23T04:58:36.251Z,100938.58
2019-05-23T05:01:23.435Z,100942.56
2019-05-23T05:04:10.350Z,100945.80
2019-05-23T05:06:57.599Z,100945.80
2019-05-23T05:09:44.509Z,100940.91
2019-05-23T05:12:31.903Z,100941.84
2019-05-23T05:15:19.361Z,100945.39
2019-05-23T05:18:08.925Z,100947.12
2019-05-23T05:20:56.501Z,100950.15
2019-05-23T05:23:43.707Z,100956.72
2019-05-23T05:26:30.933Z,100955.45
2019-05-23T05:29:19.047Z,100957.70
2019-05-23T05:32:06.199Z,100955.88
2019-05-23T05:34:52.992Z,100959.84
2019-05-23T05:37:40.518Z,100955.91
2019-05-23T05:40:27.840Z,100958.70
2019-05-23T05:43:14.751Z,100961.66
2019-05-23T05:46:02.256Z,100959.93
2019-05-23T05:49:03.706Z,100954.81
2019-05-23T05:51:51.677Z,100957.09
2019-05-23T05:54:39.037Z,100961.30
2019-05-23T06:00:37.344Z,100969.00
2019-05-23T06:03:24.236Z,100970.66
2019-05-23T06:06:11.727Z,100976.20
2019-05-23T06:09:03.702Z,100977.28
2019-05-23T06:11:51.157Z,100980.96
2019-05-23T06:14:38.114Z,100981.95
2019-05-23T06:17:25.249Z,100980.50
2019-05-23T06:20:11.991Z,100974.69
2019-05-23T06:22:59.203Z,100977.89
2019-05-23T06:25:49.384Z,100978.59
2019-05-23T06:28:36.190Z,100976.82
2019-05-23T06:31:23.331Z,100978.83
2019-05-23T06:34:10.211Z,100978.84
2019-05-23T06:36:56.974Z,100980.91
2019-05-23T06:39:44.244Z,100982.23
2019-05-23T06:42:31.937Z,100981.55
2019-05-23T06:45:18.898Z,100983.44
2019-05-23T06:48:05.998Z,100988.42
2019-05-23T06:50:53.197Z,100988.92
2019-05-23T06:53:40.389Z,100986.19
2019-05-23T06:56:27.465Z,100988.08
2019-05-23T06:59:14.789Z,100981.34
2019-05-23T07:02:02.018Z,100987.45
2019-05-23T07:04:49.431Z,100983.14
2019-05-23T07:07:36.433Z,100977.34
2019-05-23T07:10:24.631Z,100982.53
2019-05-23T07:16:17.703Z,100984.70
2019-05-23T07:19:04.494Z,100982.20
2019-05-23T07:21:51.739Z,100985.55
2019-05-23T07:24:55.188Z,100982.81
2019-05-23T07:27:25.810Z,100985.13
2019-05-23T07:30:24.679Z,100986.02
2019-05-23T07:33:11.592Z,100990.28
2019-05-23T07:35:58.355Z,100985.60
2019-05-23T07:38:45.125Z,100992.17
2019-05-23T07:41:32.561Z,100986.37
2019-05-23T07:44:19.348Z,100988.50
2019-05-23T07:47:06.083Z,100988.25
2019-05-23T07:49:52.856Z,100987.98
2019-05-23T07:52:39.578Z,100987.79
2019-05-23T07:55:27.084Z,100989.19
2019-05-23T07:58:14.392Z,100984.69
2019-05-23T08:01:07.738Z,100985.33
2019-05-23T08:03:54.534Z,100982.94
2019-05-23T08:06:41.622Z,100977.34
2019-05-23T08:09:30.016Z,100986.37
2019-05-23T08:12:17.152Z,100982.36
2019-05-23T08:15:04.100Z,100984.41
2019-05-23T08:17:51.185Z,100984.45
2019-05-23T08:20:38.351Z,100978.94
2019-05-23T08:23:26.029Z,100980.00
2019-05-23T08:26:13.341Z,100974.59
2019-05-23T08:29:24.071Z,100979.25
2019-05-23T08:31:47.491Z,100976.42
2019-05-23T08:34:41.634Z,100971.11
2019-05-23T08:37:21.709Z,100972.41
2019-05-23T08:40:08.779Z,100964.74
2019-05-23T08:42:56.043Z,100976.01
2019-05-23T08:45:43.364Z,100967.41
2019-05-23T08:48:31.587Z,100965.39
2019-05-23T08:51:18.740Z,100956.77
2019-05-23T08:54:05.735Z,100961.59
2019-05-23T08:56:52.544Z,100962.20
2019-05-23T08:59:39.764Z,100952.15
2019-05-23T09:02:27.169Z,100957.10
2019-05-23T09:05:14.012Z,100957.12
2019-05-23T09:08:00.806Z,100957.75
2019-05-23T09:10:48.440Z,100959.29
2019-05-23T09:13:36.182Z,100964.73
2019-05-23T09:16:22.977Z,100964.82
2019-05-23T09:19:09.875Z,100963.03
2019-05-23T09:22:06.421Z,100964.45
2019-05-23T09:24:53.696Z,100965.13
2019-05-23T09:27:40.850Z,100961.00
2019-05-23T09:30:28.882Z,100966.78
2019-05-23T09:33:15.659Z,100967.48
2019-05-23T09:36:02.322Z,100967.65
2019-05-23T09:38:49.165Z,100961.30
2019-05-23T09:41:36.246Z,100960.65
2019-05-23T09:44:24.243Z,100961.84
2019-05-23T09:47:11.908Z,100961.71
2019-05-23T09:49:59.453Z,100966.94
2019-05-23T09:52:46.034Z,100967.87
2019-05-23T09:55:33.168Z,100971.42
2019-05-23T09:58:20.460Z,100964.22
2019-05-23T10:01:07.246Z,100963.84
2019-05-23T10:03:53.952Z,100965.13
2019-05-23T10:06:41.288Z,100964.39
2019-05-23T10:09:28.715Z,100958.07
2019-05-23T10:12:15.730Z,100961.77
2019-05-23T10:15:03.009Z,100960.50
2019-05-23T10:17:49.588Z,100958.22
2019-05-23T10:20:36.778Z,100962.00
2019-05-23T10:23:23.770Z,100953.36
2019-05-23T10:26:11.265Z,100953.42
2019-05-23T10:28:57.935Z,100954.36
2019-05-23T10:31:44.986Z,100952.88
2019-05-23T10:34:31.897Z,100942.72
2019-05-23T10:37:18.723Z,100943.19
2019-05-23T10:40:05.779Z,100938.31
2019-05-23T10:42:53.368Z,100944.00
2019-05-23T10:45:40.953Z,100942.65
2019-05-23T10:48:28.322Z,100934.47
2019-05-23T10:51:15.264Z,100940.73
2019-05-23T10:54:02.566Z,100936.47
2019-05-23T10:56:49.393Z,100930.28
2019-05-23T10:59:50.610Z,100923.30
2019-05-23T11:02:37.626Z,100920.69
2019-05-23T11:05:25.669Z,100923.36
2019-05-23T11:08:12.393Z,100923.36
2019-05-23T11:10:59.554Z,100918.22
2019-05-23T11:13:46.706Z,100920.07
2019-05-23T11:16:34.853Z,100910.86
2019-05-23T11:19:22.479Z,100919.08
2019-05-23T11:22:09.446Z,100913.70
2019-05-23T11:24:56.100Z,100914.97
2019-05-23T11:27:42.938Z,100916.92
2019-05-23T11:30:32.686Z,100902.53
2019-05-23T11:33:20.236Z,100906.69
2019-05-23T11:36:07.057Z,100902.16
2019-05-23T11:42:00.415Z,100900.64
2019-05-23T11:45:06.063Z,100900.38
2019-05-23T11:47:53.312Z,100897.05
2019-05-23T11:50:40.450Z,100899.81
2019-05-23T11:53:27.690Z,100891.31
2019-05-23T11:56:15.119Z,100880.77
2019-05-23T11:59:02.189Z,100888.97
2019-05-23T12:01:57.688Z,100880.11
2019-05-23T12:07:50.381Z,100876.90
2019-05-23T12:10:37.696Z,100874.97
2019-05-23T12:13:24.439Z,100874.30
2019-05-23T12:16:11.830Z,100872.61
2019-05-23T12:18:58.550Z,100868.45
2019-05-23T12:21:45.304Z,100862.25
2019-05-23T12:24:35.455Z,100862.05
2019-05-23T12:27:20.048Z,100858.05
2019-05-23T12:30:07.063Z,100853.50
2019-05-23T12:32:54.376Z,100849.58
2019-05-23T12:35:41.444Z,100856.78
2019-05-23T12:38:28.268Z,100856.66
2019-05-23T12:41:15.489Z,100845.33
2019-05-23T12:44:03.005Z,100842.94
2019-05-23T12:46:51.515Z,100828.73
2019-05-23T12:49:38.864Z,100836.28
2019-05-23T12:52:26.109Z,100831.82
2019-05-23T12:55:28.054Z,100824.44
2019-05-23T12:58:15.057Z,100828.59
2019-05-23T13:01:01.968Z,100825.59
2019-05-23T13:03:49.269Z,100818.39
2019-05-23T13:06:35.977Z,100817.36
2019-05-23T13:09:23.219Z,100816.05
2019-05-23T13:12:10.398Z,100814.02
2019-05-23T13:14:58.826Z,100799.84
2019-05-23T13:17:43.959Z,100797.11
2019-05-23T13:20:31.040Z,100799.80
2019-05-23T13:23:21.112Z,100797.81
2019-05-23T13:26:05.025Z,100790.14
2019-05-23T13:28:52.179Z,100798.61
2019-05-23T13:31:39.518Z,100799.00
2019-05-23T13:34:26.198Z,100796.40
2019-05-23T13:37:16.795Z,100789.52
2019-05-23T13:40:00.508Z,100790.49
2019-05-23T13:42:47.650Z,100790.16
2019-05-23T13:45:34.382Z,100787.77
2019-05-23T13:48:21.213Z,100781.00
2019-05-23T13:51:08.508Z,100774.25
2019-05-23T13:53:55.804Z,100772.70
2019-05-23T13:56:47.343Z,100777.11
2019-05-23T13:59:29.957Z,100770.77
2019-05-23T14:02:17.131Z,100769.39
2019-05-23T14:05:03.783Z,100765.68
2019-05-23T14:07:50.928Z,100767.47
2019-05-23T14:10:37.710Z,100772.03
2019-05-23T14:13:25.658Z,100774.09
2019-05-23T14:16:12.236Z,100770.70
2019-05-23T14:18:59.462Z,100766.78
2019-05-23T14:21:46.290Z,100769.94
2019-05-23T14:24:37.293Z,100764.80
2019-05-23T14:27:33.620Z,100760.09
2019-05-23T14:30:38.539Z,100752.66
2019-05-23T14:33:26.336Z,100757.25
2019-05-23T14:36:32.491Z,100755.47
2019-05-23T14:39:21.177Z,100760.80
2019-05-23T14:42:08.770Z,100753.55
2019-05-23T14:44:55.474Z,100754.42
2019-05-23T14:47:42.948Z,100758.77
2019-05-23T14:50:36.210Z,100747.90
2019-05-23T14:53:23.095Z,100747.83
2019-05-23T14:56:10.132Z,100744.96
2019-05-23T14:58:56.905Z,100744.70
2019-05-23T15:01:44.128Z,100749.92
2019-05-23T15:04:31.277Z,100745.34
2019-05-23T15:07:18.053Z,100739.25
2019-05-23T15:10:07.995Z,100734.03
2019-05-23T15:12:55.059Z,100737.50
2019-05-23T15:15:42.678Z,100740.88
2019-05-23T15:18:30.111Z,100733.95
2019-05-23T15:21:17.343Z,100735.91
2019-05-23T15:24:04.452Z,100732.23
2019-05-23T15:26:51.587Z,100730.64
2019-05-23T15:29:38.371Z,100724.92
2019-05-23T15:32:25.457Z,100729.35
2019-05-23T15:35:12.403Z,100722.45
2019-05-23T15:38:02.416Z,100720.04
2019-05-23T15:40:49.536Z,100719.64
2019-05-23T15:43:37.342Z,100715.01
2019-05-23T15:46:24.357Z,100706.07
2019-05-23T15:49:11.022Z,100710.18
2019-05-23T15:52:10.525Z,100706.66
2019-05-23T15:54:57.338Z,100702.52
2019-05-23T15:57:50.615Z,100703.41
2019-05-23T16:00:46.735Z,100704.35
2019-05-23T16:03:33.868Z,100698.87
2019-05-23T16:06:24.165Z,100695.13
2019-05-23T16:09:28.795Z,100698.49
2019-05-23T16:12:01.341Z,100691.79
2019-05-23T16:14:48.575Z,100695.77
2019-05-23T16:17:35.644Z,100688.37
2019-05-23T16:20:22.660Z,100681.55
2019-05-23T16:23:09.794Z,100685.45
2019-05-23T16:25:57.103Z,100689.15
2019-05-23T16:28:44.321Z,100687.78
2019-05-23T16:31:31.748Z,100688.89
2019-05-23T16:34:18.897Z,100683.61
2019-05-23T16:37:05.770Z,100681.75
2019-05-23T16:39:52.911Z,100682.86
2019-05-23T16:42:40.043Z,100684.27
2019-05-23T16:45:26.997Z,100680.97
2019-05-23T16:48:14.167Z,100688.12
2019-05-23T16:51:01.329Z,100683.55
2019-05-23T16:53:48.512Z,100683.67
2019-05-23T16:56:38.079Z,100682.23
2019-05-23T16:59:30.931Z,100678.91
2019-05-23T17:02:17.983Z,100683.14
2019-05-23T17:05:09.814Z,100679.15
2019-05-23T17:07:51.954Z,100679.41
2019-05-23T17:10:41.305Z,100674.31
2019-05-23T17:13:29.180Z,100674.70
2019-05-23T17:16:30.092Z,100679.10
2019-05-23T17:19:18.324Z,100678.88
2019-05-23T17:22:20.752Z,100680.83
2019-05-23T17:25:19.701Z,100669.08
2019-05-23T17:28:12.846Z,100676.41
2019-05-23T17:30:59.704Z,100673.94
2019-05-23T17:33:47.068Z,100669.32
2019-05-23T17:36:34.214Z,100666.26
2019-05-23T17:39:21.510Z,100665.96
2019-05-23T17:42:09.651Z,100668.80
2019-05-23T17:44:56.481Z,100662.05
2019-05-23T17:47:43.385Z,100660.66
2019-05-23T17:50:34.369Z,100661.41
2019-05-23T17:53:17.689Z,100664.50
2019-05-23T17:56:04.447Z,100662.16
2019-05-23T17:58:52.721Z,100656.71
2019-05-23T18:01:40.119Z,100665.72
2019-05-23T18:04:26.824Z,100667.69
2019-05-23T18:07:13.761Z,100667.95
2019-05-23T18:10:01.481Z,100668.31
2019-05-23T18:12:48.518Z,100669.53
2019-05-23T18:15:35.203Z,100679.12
2019-05-23T18:18:25.901Z,100677.03
2019-05-23T18:21:12.853Z,100674.62
2019-05-23T18:24:00.258Z,100674.05
2019-05-23T18:26:57.639Z,100674.73
2019-05-23T18:29:44.680Z,100670.86
2019-05-23T18:32:31.918Z,100677.60
2019-05-23T18:35:19.795Z,100676.59
2019-05-23T18:38:06.768Z,100677.74
2019-05-23T18:41:09.583Z,100679.25
2019-05-23T18:44:03.465Z,100683.11
2019-05-23T18:46:53.840Z,100692.20
2019-05-23T18:49:43.716Z,100690.94
2019-05-23T18:52:30.309Z,100693.91
2019-05-23T18:55:17.098Z,100697.20
2019-05-23T18:58:04.702Z,100701.92
2019-05-23T19:04:00.251Z,100705.62
2019-05-23T19:06:48.181Z,100701.58
2019-05-23T19:09:35.518Z,100701.22
2019-05-23T19:12:22.263Z,100704.31
2019-05-23T19:15:09.735Z,100708.63
2019-05-23T19:17:56.560Z,100704.47
2019-05-23T19:20:43.537Z,100714.20
2019-05-23T19:23:30.591Z,100717.73
2019-05-23T19:26:17.732Z,100718.36
2019-05-23T19:29:07.619Z,100717.48
2019-05-23T19:31:54.479Z,100725.75
2019-05-23T19:34:41.506Z,100721.66
2019-05-23T19:37:28.532Z,100712.81
2019-05-23T19:40:15.562Z,100716.23
2019-05-23T19:43:02.645Z,100706.66
2019-05-23T19:45:49.848Z,100710.16
2019-05-23T19:48:37.398Z,100707.98
2019-05-23T19:51:24.186Z,100711.59
2019-05-23T19:54:11.111Z,100704.22
2019-05-23T19:57:12.514Z,100701.75
2019-05-23T19:59:59.276Z,100704.41
2019-05-23T20:02:55.105Z,100696.95
2019-05-23T20:05:50.057Z,100693.36
2019-05-23T20:08:38.196Z,100700.46
2019-05-23T20:11:26.026Z,100695.44
2019-05-23T20:14:12.775Z,100689.25
2019-05-23T20:17:00.026Z,100691.30
2019-05-23T20:19:50.265Z,100693.64
2019-05-23T20:22:34.752Z,100688.34
2019-05-23T20:25:21.522Z,100697.45
2019-05-23T20:28:08.287Z,100700.64
2019-05-23T20:30:55.016Z,100705.22
2019-05-23T20:33:41.958Z,100701.56
2019-05-23T20:36:29.264Z,100702.78
2019-05-23T20:39:16.296Z,100698.27
2019-05-23T20:42:11.579Z,100701.91
2019-05-23T20:44:50.031Z,100701.77
2019-05-23T20:47:44.071Z,100698.48
2019-05-23T20:50:38.481Z,100690.58
2019-05-23T20:53:25.452Z,100697.91
2019-05-23T20:56:12.192Z,100696.22
2019-05-23T20:58:59.321Z,100689.79
2019-05-23T21:01:46.114Z,100687.83
2019-05-23T21:04:33.298Z,100691.44
2019-05-23T21:07:20.637Z,100690.03
2019-05-23T21:10:07.335Z,100687.16
2019-05-23T21:12:54.412Z,100692.91
2019-05-23T21:15:41.628Z,100681.89
2019-05-23T21:18:28.988Z,100681.04
2019-05-23T21:21:15.786Z,100679.55
2019-05-23T21:24:05.820Z,100680.76
2019-05-23T21:26:53.321Z,100679.12
2019-05-23T21:29:42.994Z,100677.16
2019-05-23T21:35:36.230Z,100677.91
2019-05-23T21:38:23.250Z,100681.69
2019-05-23T21:41:10.752Z,100679.73
2019-05-23T21:43:57.821Z,100680.27
2019-05-23T21:46:44.777Z,100690.16
2019-05-23T21:49:32.141Z,100682.68
2019-05-23T21:52:19.237Z,100683.16
2019-05-23T21:55:08.994Z,100680.84
2019-05-23T22:01:12.473Z,100678.14
2019-05-23T22:04:11.451Z,100683.50
2019-05-23T22:06:58.748Z,100685.97
2019-05-23T22:09:45.970Z,100685.02
2019-05-23T22:12:32.737Z,100682.03
2019-05-23T22:15:19.645Z,100686.48
2019-05-23T22:21:12.297Z,100677.77
2019-05-23T22:23:58.928Z,100667.47
2019-05-23T22:26:46.149Z,100664.98
2019-05-23T22:29:33.822Z,100676.67
2019-05-23T22:32:24.057Z,100666.88
2019-05-23T22:35:11.124Z,100671.50
2019-05-23T22:37:57.777Z,100666.14
2019-05-23T22:40:44.663Z,100665.78
2019-05-23T22:43:31.417Z,100663.63
2019-05-23T22:46:18.824Z,100663.95
2019-05-23T22:49:05.660Z,100667.81
2019-05-23T22:51:52.743Z,100668.07
2019-05-23T22:54:39.600Z,100664.27
2019-05-23T22:57:26.582Z,100661.77
2019-05-23T23:00:13.247Z,100655.74
2019-05-23T23:06:06.121Z,100659.48
2019-05-23T23:08:54.067Z,100658.38
2019-05-23T23:11:41.121Z,100657.73
2019-05-23T23:14:27.805Z,100649.21
2019-05-23T23:17:28.905Z,100654.73
2019-05-23T23:20:15.957Z,100661.52
2019-05-23T23:23:03.236Z,100656.86
2019-05-23T23:25:50.720Z,100651.67
2019-05-23T23:31:43.844Z,100654.20
2019-05-23T23:37:38.441Z,100662.92
2019-05-23T23:40:25.542Z,100659.80
2019-05-23T23:43:13.109Z,100653.41
2019-05-23T23:46:18.456Z,100648.70
2019-05-23T23:49:24.137Z,100655.06
2019-05-23T23:52:29.098Z,100645.87
2019-05-23T23:55:35.948Z,100640.94
2019-05-23T23:58:22.472Z,100642.09
